sensor_id;sensor_type;location;lat;lon;timestamp;P1;durP1;ratioP1;P2;durP2;ratioP2
51515;SDS011;37603;55.614;37.326;2023-03-09T00:03:06;3.8;;;2.6;;
51515;SDS011;37603;55.614;37.326;2023-03-09T00:09:05;3.2;;;2.8;;
51515;SDS011;37603;55.614;37.326;2023-03-09T00:15:04;4.1;;;2.8;;
51515;SDS011;37603;55.614;37.326;2023-03-09T00:21:02;4.0;;;1.7;;
51515;SDS011;37603;55.614;37.326;2023-03-09T00:27:01;3.8;;;3.0;;
51515;SDS011;37603;55.614;37.326;2023-03-09T00:32:59;3.0;;;1.4;;
51515;SDS011;37603;55.614;37.326;2023-03-09T00:38:58;2.7;;;1.6;;
51515;SDS011;37603;55.614;37.326;2023-03-09T00:44:56;2.8;;;1.6;;
51515;SDS011;37603;55.614;37.326;2023-03-09T00:50:55;4.6;;;1.2;;
51515;SDS011;37603;55.614;37.326;2023-03-09T00:56:53;1.7;;;1.3;;
51515;SDS011;37603;55.614;37.326;2023-03-09T01:02:52;3.2;;;1.3;;
51515;SDS011;37603;55.614;37.326;2023-03-09T01:08:50;4.3;;;1.6;;
51515;SDS011;37603;55.614;37.326;2023-03-09T01:14:52;2.3;;;1.4;;
51515;SDS011;37603;55.614;37.326;2023-03-09T01:20:47;2.6;;;1.5;;
51515;SDS011;37603;55.614;37.326;2023-03-09T01:26:46;3.4;;;3.1;;
51515;SDS011;37603;55.614;37.326;2023-03-09T01:32:45;3.6;;;3.1;;
51515;SDS011;37603;55.614;37.326;2023-03-09T01:38:43;4.6;;;1.5;;
51515;SDS011;37603;55.614;37.326;2023-03-09T01:44:42;1.8;;;1.2;;
51515;SDS011;37603;55.614;37.326;2023-03-09T01:50:40;4.5;;;3.2;;
51515;SDS011;37603;55.614;37.326;2023-03-09T01:56:39;5.0;;;1.5;;
51515;SDS011;37603;55.614;37.326;2023-03-09T02:02:38;2.6;;;1.5;;
51515;SDS011;37603;55.614;37.326;2023-03-09T02:14:34;2.7;;;1.4;;
51515;SDS011;37603;55.614;37.326;2023-03-09T02:20:34;3.1;;;1.4;;
51515;SDS011;37603;55.614;37.326;2023-03-09T02:26:33;3.4;;;1.2;;
51515;SDS011;37603;55.614;37.326;2023-03-09T02:32:30;1.9;;;1.2;;
51515;SDS011;37603;55.614;37.326;2023-03-09T02:38:29;3.4;;;1.5;;
51515;SDS011;37603;55.614;37.326;2023-03-09T02:44:27;4.0;;;1.3;;
51515;SDS011;37603;55.614;37.326;2023-03-09T02:50:26;3.3;;;1.0;;
51515;SDS011;37603;55.614;37.326;2023-03-09T02:56:24;4.5;;;1.1;;
51515;SDS011;37603;55.614;37.326;2023-03-09T03:02:23;3.0;;;2.3;;
51515;SDS011;37603;55.614;37.326;2023-03-09T03:08:21;2.7;;;1.2;;
51515;SDS011;37603;55.614;37.326;2023-03-09T03:14:20;2.4;;;1.2;;
51515;SDS011;37603;55.614;37.326;2023-03-09T03:20:18;4.5;;;1.3;;
51515;SDS011;37603;55.614;37.326;2023-03-09T03:26:17;3.4;;;1.1;;
51515;SDS011;37603;55.614;37.326;2023-03-09T03:32:15;3.3;;;1.4;;
51515;SDS011;37603;55.614;37.326;2023-03-09T03:38:14;2.4;;;1.1;;
51515;SDS011;37603;55.614;37.326;2023-03-09T03:44:12;2.0;;;1.2;;
51515;SDS011;37603;55.614;37.326;2023-03-09T03:50:11;2.8;;;1.4;;
51515;SDS011;37603;55.614;37.326;2023-03-09T03:56:09;2.5;;;1.2;;
51515;SDS011;37603;55.614;37.326;2023-03-09T04:02:08;4.6;;;1.4;;
51515;SDS011;37603;55.614;37.326;2023-03-09T04:08:06;3.2;;;1.0;;
51515;SDS011;37603;55.614;37.326;2023-03-09T04:14:05;2.9;;;1.1;;
51515;SDS011;37603;55.614;37.326;2023-03-09T04:20:04;2.8;;;1.2;;
51515;SDS011;37603;55.614;37.326;2023-03-09T04:26:03;4.4;;;1.2;;
51515;SDS011;37603;55.614;37.326;2023-03-09T04:32:00;3.2;;;0.9;;
51515;SDS011;37603;55.614;37.326;2023-03-09T04:37:59;1.6;;;1.0;;
51515;SDS011;37603;55.614;37.326;2023-03-09T04:43:58;3.1;;;1.2;;
51515;SDS011;37603;55.614;37.326;2023-03-09T04:49:56;3.3;;;1.2;;
51515;SDS011;37603;55.614;37.326;2023-03-09T04:55:54;2.4;;;1.0;;
51515;SDS011;37603;55.614;37.326;2023-03-09T05:01:53;2.8;;;1.0;;
51515;SDS011;37603;55.614;37.326;2023-03-09T05:13:50;2.2;;;1.1;;
51515;SDS011;37603;55.614;37.326;2023-03-09T05:19:48;2.3;;;1.0;;
51515;SDS011;37603;55.614;37.326;2023-03-09T05:25:54;4.1;;;2.0;;
51515;SDS011;37603;55.614;37.326;2023-03-09T05:31:45;3.6;;;1.1;;
51515;SDS011;37603;55.614;37.326;2023-03-09T05:37:44;2.0;;;1.0;;
51515;SDS011;37603;55.614;37.326;2023-03-09T05:43:43;2.3;;;1.0;;
51515;SDS011;37603;55.614;37.326;2023-03-09T05:55:40;1.9;;;1.1;;
51515;SDS011;37603;55.614;37.326;2023-03-09T06:01:38;3.2;;;1.5;;
51515;SDS011;37603;55.614;37.326;2023-03-09T06:07:37;2.4;;;1.2;;
51515;SDS011;37603;55.614;37.326;2023-03-09T06:13:36;3.9;;;2.4;;
51515;SDS011;37603;55.614;37.326;2023-03-09T06:19:34;3.4;;;2.1;;
51515;SDS011;37603;55.614;37.326;2023-03-09T06:25:33;3.6;;;2.3;;
51515;SDS011;37603;55.614;37.326;2023-03-09T06:31:31;4.1;;;2.5;;
51515;SDS011;37603;55.614;37.326;2023-03-09T06:37:30;3.5;;;2.2;;
51515;SDS011;37603;55.614;37.326;2023-03-09T06:49:27;4.0;;;2.4;;
51515;SDS011;37603;55.614;37.326;2023-03-09T06:55:26;3.6;;;2.0;;
51515;SDS011;37603;55.614;37.326;2023-03-09T07:01:25;2.5;;;1.9;;
51515;SDS011;37603;55.614;37.326;2023-03-09T07:07:23;2.9;;;2.0;;
51515;SDS011;37603;55.614;37.326;2023-03-09T07:13:22;2.8;;;1.7;;
51515;SDS011;37603;55.614;37.326;2023-03-09T07:25:19;3.1;;;1.6;;
51515;SDS011;37603;55.614;37.326;2023-03-09T07:31:18;3.6;;;1.7;;
51515;SDS011;37603;55.614;37.326;2023-03-09T07:37:17;2.6;;;1.7;;
51515;SDS011;37603;55.614;37.326;2023-03-09T07:43:16;2.7;;;1.9;;
51515;SDS011;37603;55.614;37.326;2023-03-09T07:49:14;3.6;;;1.9;;
51515;SDS011;37603;55.614;37.326;2023-03-09T07:55:13;3.1;;;1.6;;
51515;SDS011;37603;55.614;37.326;2023-03-09T08:01:13;3.9;;;1.7;;
51515;SDS011;37603;55.614;37.326;2023-03-09T08:07:10;2.4;;;1.4;;
51515;SDS011;37603;55.614;37.326;2023-03-09T08:13:09;3.6;;;2.0;;
51515;SDS011;37603;55.614;37.326;2023-03-09T08:19:08;2.8;;;1.5;;
51515;SDS011;37603;55.614;37.326;2023-03-09T08:25:07;3.3;;;1.5;;
51515;SDS011;37603;55.614;37.326;2023-03-09T08:31:05;2.9;;;1.5;;
51515;SDS011;37603;55.614;37.326;2023-03-09T08:37:04;2.5;;;1.7;;
51515;SDS011;37603;55.614;37.326;2023-03-09T08:43:03;2.4;;;1.4;;
51515;SDS011;37603;55.614;37.326;2023-03-09T08:49:01;3.5;;;1.7;;
51515;SDS011;37603;55.614;37.326;2023-03-09T08:55:00;3.6;;;1.4;;
51515;SDS011;37603;55.614;37.326;2023-03-09T09:00:59;3.0;;;1.4;;
51515;SDS011;37603;55.614;37.326;2023-03-09T09:06:57;1.8;;;1.1;;
51515;SDS011;37603;55.614;37.326;2023-03-09T09:12:56;2.0;;;1.0;;
51515;SDS011;37603;55.614;37.326;2023-03-09T09:18:55;1.7;;;1.3;;
51515;SDS011;37603;55.614;37.326;2023-03-09T09:24:54;2.5;;;1.1;;
51515;SDS011;37603;55.614;37.326;2023-03-09T09:30:53;2.7;;;0.9;;
51515;SDS011;37603;55.614;37.326;2023-03-09T09:36:51;2.3;;;0.8;;
51515;SDS011;37603;55.614;37.326;2023-03-09T09:42:50;1.3;;;0.7;;
51515;SDS011;37603;55.614;37.326;2023-03-09T09:48:49;2.1;;;0.9;;
51515;SDS011;37603;55.614;37.326;2023-03-09T09:54:49;1.9;;;1.0;;
51515;SDS011;37603;55.614;37.326;2023-03-09T10:00:47;1.5;;;0.8;;
51515;SDS011;37603;55.614;37.326;2023-03-09T10:06:45;2.1;;;1.1;;
51515;SDS011;37603;55.614;37.326;2023-03-09T10:12:43;2.0;;;1.0;;
51515;SDS011;37603;55.614;37.326;2023-03-09T10:18:43;2.4;;;0.9;;
51515;SDS011;37603;55.614;37.326;2023-03-09T10:24:42;1.4;;;0.8;;
51515;SDS011;37603;55.614;37.326;2023-03-09T10:30:41;2.3;;;1.0;;
51515;SDS011;37603;55.614;37.326;2023-03-09T10:36:40;2.7;;;1.1;;
51515;SDS011;37603;55.614;37.326;2023-03-09T10:42:37;3.4;;;1.3;;
51515;SDS011;37603;55.614;37.326;2023-03-09T10:48:36;2.5;;;1.3;;
51515;SDS011;37603;55.614;37.326;2023-03-09T10:54:35;2.2;;;1.2;;
51515;SDS011;37603;55.614;37.326;2023-03-09T11:00:33;3.4;;;1.2;;
51515;SDS011;37603;55.614;37.326;2023-03-09T11:06:33;1.9;;;1.1;;
51515;SDS011;37603;55.614;37.326;2023-03-09T11:12:31;2.4;;;1.2;;
51515;SDS011;37603;55.614;37.326;2023-03-09T11:18:29;2.8;;;1.3;;
51515;SDS011;37603;55.614;37.326;2023-03-09T11:24:29;2.6;;;1.1;;
51515;SDS011;37603;55.614;37.326;2023-03-09T11:30:27;2.7;;;1.1;;
51515;SDS011;37603;55.614;37.326;2023-03-09T11:36:27;4.5;;;1.3;;
51515;SDS011;37603;55.614;37.326;2023-03-09T11:42:27;4.1;;;1.5;;
51515;SDS011;37603;55.614;37.326;2023-03-09T11:48:24;3.1;;;1.3;;
51515;SDS011;37603;55.614;37.326;2023-03-09T11:54:23;3.0;;;1.3;;
51515;SDS011;37603;55.614;37.326;2023-03-09T12:06:23;4.5;;;1.7;;
51515;SDS011;37603;55.614;37.326;2023-03-09T12:12:20;3.6;;;1.5;;
51515;SDS011;37603;55.614;37.326;2023-03-09T12:18:17;3.0;;;1.6;;
51515;SDS011;37603;55.614;37.326;2023-03-09T12:24:25;3.1;;;1.4;;
51515;SDS011;37603;55.614;37.326;2023-03-09T12:30:18;2.5;;;1.3;;
51515;SDS011;37603;55.614;37.326;2023-03-09T12:48:19;4.4;;;2.8;;
51515;SDS011;37603;55.614;37.326;2023-03-09T12:54:18;5.5;;;3.1;;
51515;SDS011;37603;55.614;37.326;2023-03-09T13:06:17;3.1;;;1.7;;
51515;SDS011;37603;55.614;37.326;2023-03-09T13:12:13;4.0;;;1.9;;
51515;SDS011;37603;55.614;37.326;2023-03-09T13:18:10;2.6;;;1.7;;
51515;SDS011;37603;55.614;37.326;2023-03-09T13:24:03;2.7;;;1.7;;
51515;SDS011;37603;55.614;37.326;2023-03-09T13:30:12;3.4;;;1.3;;
51515;SDS011;37603;55.614;37.326;2023-03-09T13:36:05;1.8;;;1.2;;
51515;SDS011;37603;55.614;37.326;2023-03-09T13:42:00;2.5;;;1.3;;
51515;SDS011;37603;55.614;37.326;2023-03-09T13:47:58;2.2;;;1.1;;
51515;SDS011;37603;55.614;37.326;2023-03-09T13:53:56;3.9;;;1.3;;
51515;SDS011;37603;55.614;37.326;2023-03-09T13:59:56;3.0;;;1.3;;
51515;SDS011;37603;55.614;37.326;2023-03-09T14:05:55;2.7;;;1.5;;
51515;SDS011;37603;55.614;37.326;2023-03-09T14:11:52;3.5;;;1.8;;
51515;SDS011;37603;55.614;37.326;2023-03-09T14:17:51;2.5;;;1.3;;
51515;SDS011;37603;55.614;37.326;2023-03-09T14:23:50;2.9;;;1.7;;
51515;SDS011;37603;55.614;37.326;2023-03-09T14:29:48;2.5;;;1.4;;
51515;SDS011;37603;55.614;37.326;2023-03-09T14:35:47;4.2;;;3.5;;
51515;SDS011;37603;55.614;37.326;2023-03-09T14:41:50;3.5;;;2.1;;
51515;SDS011;37603;55.614;37.326;2023-03-09T14:47:44;4.1;;;1.9;;
51515;SDS011;37603;55.614;37.326;2023-03-09T14:59:42;2.7;;;1.7;;
51515;SDS011;37603;55.614;37.326;2023-03-09T15:05:40;3.8;;;1.7;;
51515;SDS011;37603;55.614;37.326;2023-03-09T15:11:39;4.1;;;1.8;;
51515;SDS011;37603;55.614;37.326;2023-03-09T15:17:38;4.0;;;2.1;;
51515;SDS011;37603;55.614;37.326;2023-03-09T15:23:36;5.4;;;3.9;;
51515;SDS011;37603;55.614;37.326;2023-03-09T15:29:35;6.8;;;3.7;;
51515;SDS011;37603;55.614;37.326;2023-03-09T15:35:33;4.9;;;2.6;;
51515;SDS011;37603;55.614;37.326;2023-03-09T15:41:32;6.0;;;3.1;;
51515;SDS011;37603;55.614;37.326;2023-03-09T15:47:31;4.5;;;2.6;;
51515;SDS011;37603;55.614;37.326;2023-03-09T15:53:30;4.0;;;2.2;;
51515;SDS011;37603;55.614;37.326;2023-03-09T15:59:28;4.6;;;2.2;;
51515;SDS011;37603;55.614;37.326;2023-03-09T16:05:27;3.8;;;2.4;;
51515;SDS011;37603;55.614;37.326;2023-03-09T16:11:25;4.6;;;2.1;;
51515;SDS011;37603;55.614;37.326;2023-03-09T16:17:24;7.6;;;3.1;;
51515;SDS011;37603;55.614;37.326;2023-03-09T16:23:22;6.2;;;3.6;;
51515;SDS011;37603;55.614;37.326;2023-03-09T16:29:22;5.5;;;3.5;;
51515;SDS011;37603;55.614;37.326;2023-03-09T16:35:20;4.5;;;3.2;;
51515;SDS011;37603;55.614;37.326;2023-03-09T16:41:18;2.9;;;1.5;;
51515;SDS011;37603;55.614;37.326;2023-03-09T16:47:17;4.0;;;2.5;;
51515;SDS011;37603;55.614;37.326;2023-03-09T16:53:15;2.4;;;1.4;;
51515;SDS011;37603;55.614;37.326;2023-03-09T16:59:14;3.9;;;1.5;;
51515;SDS011;37603;55.614;37.326;2023-03-09T17:05:13;5.7;;;2.1;;
51515;SDS011;37603;55.614;37.326;2023-03-09T17:11:12;3.9;;;1.9;;
51515;SDS011;37603;55.614;37.326;2023-03-09T17:17:09;7.0;;;3.7;;
51515;SDS011;37603;55.614;37.326;2023-03-09T17:23:08;4.6;;;2.2;;
51515;SDS011;37603;55.614;37.326;2023-03-09T17:29:07;5.6;;;2.2;;
51515;SDS011;37603;55.614;37.326;2023-03-09T17:35:05;8.5;;;4.9;;
51515;SDS011;37603;55.614;37.326;2023-03-09T17:41:06;6.4;;;2.4;;
51515;SDS011;37603;55.614;37.326;2023-03-09T17:47:02;5.9;;;2.7;;
51515;SDS011;37603;55.614;37.326;2023-03-09T17:53:01;5.5;;;2.4;;
51515;SDS011;37603;55.614;37.326;2023-03-09T17:58:59;5.4;;;2.6;;
51515;SDS011;37603;55.614;37.326;2023-03-09T18:10:56;6.4;;;2.9;;
51515;SDS011;37603;55.614;37.326;2023-03-09T18:16:55;7.2;;;3.5;;
51515;SDS011;37603;55.614;37.326;2023-03-09T18:22:53;7.8;;;3.4;;
51515;SDS011;37603;55.614;37.326;2023-03-09T18:28:52;8.9;;;4.1;;
51515;SDS011;37603;55.614;37.326;2023-03-09T18:34:50;23.1;;;7.0;;
51515;SDS011;37603;55.614;37.326;2023-03-09T18:40:49;12.0;;;4.3;;
51515;SDS011;37603;55.614;37.326;2023-03-09T18:46:47;19.5;;;6.1;;
51515;SDS011;37603;55.614;37.326;2023-03-09T18:52:46;17.3;;;6.0;;
51515;SDS011;37603;55.614;37.326;2023-03-09T18:58:44;15.1;;;5.8;;
51515;SDS011;37603;55.614;37.326;2023-03-09T19:04:43;11.1;;;4.8;;
51515;SDS011;37603;55.614;37.326;2023-03-09T19:10:41;11.2;;;5.1;;
51515;SDS011;37603;55.614;37.326;2023-03-09T19:16:40;12.5;;;4.9;;
51515;SDS011;37603;55.614;37.326;2023-03-09T19:22:38;12.4;;;5.1;;
51515;SDS011;37603;55.614;37.326;2023-03-09T19:28:37;16.4;;;6.1;;
51515;SDS011;37603;55.614;37.326;2023-03-09T19:34:35;13.7;;;5.4;;
51515;SDS011;37603;55.614;37.326;2023-03-09T19:40:34;10.0;;;4.3;;
51515;SDS011;37603;55.614;37.326;2023-03-09T19:46:32;11.0;;;4.3;;
51515;SDS011;37603;55.614;37.326;2023-03-09T19:52:30;13.6;;;5.3;;
51515;SDS011;37603;55.614;37.326;2023-03-09T19:58:29;9.8;;;4.7;;
51515;SDS011;37603;55.614;37.326;2023-03-09T20:04:28;13.3;;;5.0;;
51515;SDS011;37603;55.614;37.326;2023-03-09T20:10:26;10.0;;;3.8;;
51515;SDS011;37603;55.614;37.326;2023-03-09T20:16:25;13.7;;;4.5;;
51515;SDS011;37603;55.614;37.326;2023-03-09T20:22:23;14.1;;;4.5;;
51515;SDS011;37603;55.614;37.326;2023-03-09T20:28:21;15.7;;;6.2;;
51515;SDS011;37603;55.614;37.326;2023-03-09T20:34:20;14.9;;;6.0;;
51515;SDS011;37603;55.614;37.326;2023-03-09T20:40:19;16.2;;;5.2;;
51515;SDS011;37603;55.614;37.326;2023-03-09T20:46:18;15.8;;;6.5;;
51515;SDS011;37603;55.614;37.326;2023-03-09T20:52:16;17.9;;;5.8;;
51515;SDS011;37603;55.614;37.326;2023-03-09T20:58:14;16.4;;;5.1;;
51515;SDS011;37603;55.614;37.326;2023-03-09T21:04:13;13.7;;;5.5;;
51515;SDS011;37603;55.614;37.326;2023-03-09T21:10:11;20.2;;;5.5;;
51515;SDS011;37603;55.614;37.326;2023-03-09T21:16:10;12.9;;;5.1;;
51515;SDS011;37603;55.614;37.326;2023-03-09T21:22:08;11.8;;;5.3;;
51515;SDS011;37603;55.614;37.326;2023-03-09T21:28:06;10.7;;;4.6;;
51515;SDS011;37603;55.614;37.326;2023-03-09T21:34:05;10.9;;;4.4;;
51515;SDS011;37603;55.614;37.326;2023-03-09T21:40:04;11.0;;;4.0;;
51515;SDS011;37603;55.614;37.326;2023-03-09T21:46:02;17.9;;;7.1;;
51515;SDS011;37603;55.614;37.326;2023-03-09T21:52:00;22.4;;;8.8;;
51515;SDS011;37603;55.614;37.326;2023-03-09T21:57:58;20.8;;;8.0;;
51515;SDS011;37603;55.614;37.326;2023-03-09T22:03:57;17.9;;;6.5;;
51515;SDS011;37603;55.614;37.326;2023-03-09T22:09:55;17.5;;;6.7;;
51515;SDS011;37603;55.614;37.326;2023-03-09T22:15:54;14.6;;;5.8;;
51515;SDS011;37603;55.614;37.326;2023-03-09T22:21:52;13.6;;;5.3;;
51515;SDS011;37603;55.614;37.326;2023-03-09T22:27:51;11.6;;;4.8;;
51515;SDS011;37603;55.614;37.326;2023-03-09T22:33:50;11.8;;;5.2;;
51515;SDS011;37603;55.614;37.326;2023-03-09T22:39:47;17.5;;;6.5;;
51515;SDS011;37603;55.614;37.326;2023-03-09T22:45:53;14.0;;;6.7;;
51515;SDS011;37603;55.614;37.326;2023-03-09T22:51:44;15.6;;;6.9;;
51515;SDS011;37603;55.614;37.326;2023-03-09T22:57:43;13.2;;;6.2;;
51515;SDS011;37603;55.614;37.326;2023-03-09T23:03:42;12.2;;;5.6;;
51515;SDS011;37603;55.614;37.326;2023-03-09T23:09:40;12.9;;;5.1;;
51515;SDS011;37603;55.614;37.326;2023-03-09T23:15:38;14.9;;;6.1;;
51515;SDS011;37603;55.614;37.326;2023-03-09T23:21:37;16.2;;;5.6;;
51515;SDS011;37603;55.614;37.326;2023-03-09T23:27:35;12.6;;;5.2;;
51515;SDS011;37603;55.614;37.326;2023-03-09T23:33:34;14.0;;;5.2;;
51515;SDS011;37603;55.614;37.326;2023-03-09T23:39:32;13.0;;;5.7;;
51515;SDS011;37603;55.614;37.326;2023-03-09T23:45:30;11.5;;;5.4;;
51515;SDS011;37603;55.614;37.326;2023-03-09T23:51:29;10.4;;;4.6;;
51515;SDS011;37603;55.614;37.326;2023-03-09T23:57:28;10.6;;;5.0;;
